Deering, New Hampshire
Current Conditions -  °F | °C
As of 1:51 PM on Thursday 23 Oct 2014 (Local Time) from KCON Reporting Station
Overcast Overcast  
Wind Chill: 51°   Ceiling: 2500
Heat Index: 51°   Visibility: 10mi
Dew Point: 50°   Wind: 15mph
Humidity: 96%   Direction: 40°NE
Pressure: 29.72"   Gusts: 26mph
Location:  43.1281°N, 71.9266°W
Report Text: KCON 231751Z AUTO 04013G23KT 10SM SCT019 BKN025 OVC034 11/10 A2972 RMK AO2 RAB1656E48 SLP064 P0003 60084 T01060100 10106 20089 58013
Loading
Personal Weather Stations






























Interactive Weather Map
Tropical Storm Tracking
New forecast layout! Learn more

10-Day Weather Forecast

Advertisements
Track Severe Weather on mobile